Time;durP1;ratioP1;P1;durP2;ratioP2;P2;SDS_P1;SDS_P2;PMS_P1;PMS_P2;Temp;Humidity;BMP_temperature;BMP_pressure;BME280_temperature;BME280_humidity;BME280_pressure;Samples;Min_cycle;Max_cycle;Signal;HPM_P1;HPM_P2
2023/12/14 00:01:25;;;;;;;6.70;3.75;;;8.90;99.90;;;8.84;100.00;100045.34;5208983;28;20056;-47
2023/12/14 00:03:57;;;;;;;7.85;3.47;;;8.80;99.90;;;8.83;100.00;100053.09;5217685;28;20412;-50
2023/12/14 00:06:31;;;;;;;6.55;3.42;;;8.80;99.90;;;8.83;100.00;100064.38;5221272;28;20512;-49
2023/12/14 00:09:03;;;;;;;8.88;4.13;;;8.90;99.90;;;8.81;100.00;100060.88;5204463;28;20055;-49
2023/12/14 00:11:39;;;;;;;6.80;3.65;;;8.80;99.90;;;8.80;100.00;100072.09;5202696;28;20056;-49
2023/12/14 00:14:12;;;;;;;8.15;3.65;;;8.80;99.90;;;8.81;100.00;100072.97;5213701;28;20044;-48
2023/12/14 00:16:44;;;;;;;7.78;3.78;;;8.90;99.90;;;8.77;100.00;100074.59;5199281;28;20411;-47
2023/12/14 00:19:17;;;;;;;7.07;4.00;;;8.80;99.90;;;8.75;100.00;100076.28;5204830;28;20787;-49
2023/12/14 00:21:51;;;;;;;6.25;3.92;;;8.80;99.90;;;8.76;100.00;100078.03;5205006;28;20072;-49
2023/12/14 00:24:29;;;;;;;7.43;3.90;;;8.80;99.90;;;8.76;100.00;100078.03;5220900;28;20049;-48
2023/12/14 00:27:02;;;;;;;7.60;3.88;;;8.80;99.90;;;8.78;100.00;100076.34;5204620;28;20052;-50
2023/12/14 00:29:34;;;;;;;7.47;3.78;;;8.80;99.90;;;8.77;100.00;100087.59;5200762;28;20061;-50
2023/12/14 00:32:07;;;;;;;7.05;3.97;;;8.80;99.90;;;8.77;100.00;100089.31;5217517;28;20431;-50
2023/12/14 00:34:43;;;;;;;7.32;3.63;;;8.80;99.90;;;8.79;100.00;100093.69;5199520;28;20399;-48
2023/12/14 00:37:17;;;;;;;7.40;3.63;;;8.80;99.90;;;8.80;100.00;100094.56;5204168;28;20064;-50
2023/12/14 00:39:49;;;;;;;7.97;3.97;;;8.80;99.90;;;8.78;100.00;100097.13;5218123;28;20049;-48
2023/12/14 00:42:21;;;;;;;5.50;3.80;;;8.80;99.90;;;8.79;100.00;100104.09;5220454;28;20044;-49
2023/12/14 00:44:54;;;;;;;10.15;4.28;;;8.80;99.90;;;8.79;100.00;100103.22;5200865;28;20048;-50
2023/12/14 00:47:26;;;;;;;7.28;3.92;;;8.80;99.90;;;8.77;100.00;100107.50;5204069;28;20061;-48
2023/12/14 00:49:58;;;;;;;7.53;4.30;;;8.80;99.90;;;8.79;100.00;100113.59;5216171;28;20042;-51
2023/12/14 00:52:32;;;;;;;7.43;3.42;;;8.80;99.90;;;8.80;100.00;100115.38;5217571;28;20040;-48
2023/12/14 00:55:06;;;;;;;8.60;4.05;;;8.80;99.90;;;8.81;100.00;100123.22;5204345;28;20163;-49
2023/12/14 00:57:39;;;;;;;6.25;3.88;;;8.80;99.90;;;8.82;100.00;100113.72;5213411;28;20060;-47
2023/12/14 01:00:12;;;;;;;6.15;3.45;;;8.90;99.90;;;8.82;100.00;100125.00;5204123;28;20040;-50
2023/12/14 01:02:45;;;;;;;8.25;4.03;;;8.80;99.90;;;8.84;100.00;100133.72;5203629;28;20587;-50
2023/12/14 01:05:18;;;;;;;7.18;3.60;;;8.80;99.90;;;8.85;100.00;100139.78;5200213;28;20053;-51
2023/12/14 01:07:51;;;;;;;5.68;3.47;;;8.90;99.90;;;8.85;100.00;100145.00;5214039;28;20050;-50
2023/12/14 01:10:24;;;;;;;8.32;4.07;;;8.90;99.90;;;8.86;100.00;100157.16;5204867;28;20060;-50
2023/12/14 01:12:56;;;;;;;8.68;4.15;;;8.90;99.90;;;8.84;100.00;100154.50;5203002;28;20037;-49
2023/12/14 01:15:28;;;;;;;9.30;4.13;;;8.90;99.90;;;8.82;100.00;100166.56;5219406;28;20041;-49
2023/12/14 01:18:01;;;;;;;8.90;4.18;;;8.90;99.90;;;8.80;100.00;100162.16;5196059;28;20055;-49
2023/12/14 01:20:33;;;;;;;8.02;3.53;;;8.80;99.90;;;8.80;100.00;100163.06;5217943;28;20057;-47
2023/12/14 01:23:09;;;;;;;6.88;3.53;;;8.80;99.90;;;8.80;100.00;100172.53;5223450;28;20044;-49
2023/12/14 01:25:41;;;;;;;7.28;3.72;;;8.80;99.90;;;8.80;100.00;100178.66;5207999;28;20107;-48
2023/12/14 01:28:14;;;;;;;7.15;3.88;;;8.80;99.90;;;8.81;100.00;100180.41;5208534;28;20057;-48
2023/12/14 01:30:47;;;;;;;6.45;3.42;;;8.80;99.90;;;8.83;100.00;100183.94;5204976;28;20049;-50
2023/12/14 01:33:19;;;;;;;7.50;3.90;;;8.80;99.90;;;8.82;100.00;100184.78;5207131;28;20052;-50
2023/12/14 01:35:52;;;;;;;7.30;3.35;;;8.90;99.90;;;8.82;100.00;100189.97;5204404;28;20061;-47
2023/12/14 01:38:26;;;;;;;6.93;3.60;;;8.80;99.90;;;8.82;100.00;100197.75;5207214;28;20059;-48
2023/12/14 01:40:59;;;;;;;7.78;3.85;;;8.80;99.90;;;8.82;100.00;100207.28;5219695;28;20076;-49
2023/12/14 01:43:31;;;;;;;7.22;3.63;;;8.80;99.90;;;8.81;100.00;100206.41;5217214;28;20122;-49
2023/12/14 01:46:04;;;;;;;6.85;3.70;;;8.80;99.90;;;8.79;100.00;100197.66;5208072;28;20508;-50
2023/12/14 01:48:39;;;;;;;7.45;3.63;;;8.80;99.90;;;8.80;100.00;100209.84;5203668;28;20059;-48
2023/12/14 01:51:12;;;;;;;7.30;3.22;;;8.80;99.90;;;8.79;100.00;100205.44;5218593;28;20044;-50
2023/12/14 01:53:45;;;;;;;6.30;3.58;;;8.80;99.90;;;8.79;100.00;100213.25;5217943;28;20052;-50
2023/12/14 01:56:18;;;;;;;4.97;3.25;;;8.90;99.90;;;8.80;100.00;100220.22;5207378;28;20048;-50
2023/12/14 01:58:50;;;;;;;6.95;3.70;;;8.80;99.90;;;8.81;100.00;100229.78;5204582;28;20590;-50
2023/12/14 02:01:30;;;;;;;6.50;3.17;;;8.80;99.90;;;8.81;100.00;100237.59;5207408;28;20064;-47
2023/12/14 02:04:03;;;;;;;6.00;3.55;;;8.80;99.90;;;8.82;100.00;100239.34;5219079;28;20048;-48
2023/12/14 02:06:35;;;;;;;7.18;3.42;;;8.80;99.90;;;8.82;100.00;100249.75;5207104;28;20053;-49
2023/12/14 02:09:09;;;;;;;7.45;3.83;;;8.80;99.90;;;8.84;100.00;100253.25;5205013;28;20056;-48
2023/12/14 02:11:42;;;;;;;10.38;4.88;;;8.90;99.90;;;8.84;100.00;100253.25;5206743;28;20122;-49
2023/12/14 02:14:14;;;;;;;9.68;4.78;;;8.90;99.90;;;8.85;100.00;100248.94;5220860;28;20389;-50
2023/12/14 02:16:46;;;;;;;12.00;4.93;;;8.90;99.90;;;8.85;100.00;100255.03;5204297;28;20044;-49
2023/12/14 02:19:19;;;;;;;14.43;5.82;;;8.90;99.90;;;8.87;100.00;100268.97;5207206;28;20049;-49
2023/12/14 02:21:51;;;;;;;18.17;7.13;;;8.90;99.90;;;8.85;100.00;100270.63;5204605;28;20662;-49
2023/12/14 02:24:25;;;;;;;17.80;7.60;;;8.90;99.90;;;8.87;100.00;100274.19;5206930;28;20049;-48
2023/12/14 02:26:58;;;;;;;19.13;7.25;;;8.90;99.90;;;8.88;100.00;100275.94;5200135;28;20052;-50
2023/12/14 02:29:30;;;;;;;21.17;8.68;;;8.90;99.90;;;8.89;100.00;100282.91;5211895;28;20049;-50
2023/12/14 02:32:03;;;;;;;19.50;7.72;;;8.90;99.90;;;8.91;100.00;100286.41;5219344;28;20048;-50
2023/12/14 02:34:35;;;;;;;17.02;6.97;;;9.00;99.90;;;8.94;100.00;100296.94;5205530;28;20045;-49
2023/12/14 02:37:08;;;;;;;19.10;7.80;;;9.00;99.90;;;8.94;100.00;100283.94;5216545;28;20064;-49
2023/12/14 02:39:41;;;;;;;22.38;8.25;;;9.00;99.90;;;8.95;100.00;100296.09;5223001;28;20523;-47
2023/12/14 02:42:14;;;;;;;21.85;9.10;;;9.00;99.90;;;8.95;100.00;100301.31;5206679;28;20049;-49
2023/12/14 02:44:48;;;;;;;22.00;7.65;;;9.00;99.90;;;8.96;100.00;100303.06;5203205;28;20045;-48
2023/12/14 02:47:20;;;;;;;19.33;7.47;;;9.00;99.90;;;8.99;100.00;100304.88;5206325;28;20053;-48
2023/12/14 02:49:53;;;;;;;19.08;7.47;;;9.00;99.90;;;9.02;100.00;100310.19;5220351;28;20515;-49
2023/12/14 02:52:25;;;;;;;18.55;6.93;;;9.00;99.90;;;9.03;100.00;100311.06;5200234;28;20419;-48
2023/12/14 02:54:59;;;;;;;19.08;7.60;;;9.10;99.90;;;9.05;100.00;100319.78;5222614;28;20488;-49
2023/12/14 02:57:31;;;;;;;21.02;7.90;;;9.10;99.90;;;9.06;100.00;100324.16;5196006;28;20057;-49
2023/12/14 03:00:05;;;;;;;18.73;7.85;;;9.10;99.90;;;9.06;100.00;100329.34;5206440;28;20049;-51
2023/12/14 03:02:38;;;;;;;19.55;7.35;;;9.10;99.90;;;9.05;100.00;100327.59;5204068;28;20049;-50
2023/12/14 03:05:10;;;;;;;22.70;8.90;;;9.10;99.90;;;9.05;100.00;100330.19;5209326;28;20408;-48
2023/12/14 03:07:42;;;;;;;19.98;7.40;;;9.10;99.90;;;9.06;100.00;100332.84;5200673;28;20067;-49
2023/12/14 03:10:16;;;;;;;17.52;6.60;;;9.10;99.90;;;9.07;100.00;100336.34;5210871;28;20168;-50
2023/12/14 03:12:48;;;;;;;22.02;7.97;;;9.10;99.90;;;9.09;100.00;100337.28;5202083;28;20056;-49
2023/12/14 03:15:22;;;;;;;22.30;7.80;;;9.10;99.90;;;9.09;100.00;100342.47;5205910;28;20055;-49
2023/12/14 03:17:54;;;;;;;22.48;9.35;;;9.10;99.90;;;9.09;100.00;100342.47;5221848;28;20055;-50
2023/12/14 03:20:26;;;;;;;20.05;8.05;;;9.10;99.90;;;9.07;100.00;100334.63;5204352;28;20053;-48
2023/12/14 03:22:59;;;;;;;21.35;8.02;;;9.20;99.90;;;9.10;100.00;100341.63;5204909;28;20056;-49
2023/12/14 03:25:33;;;;;;;21.05;8.38;;;9.10;99.90;;;9.09;100.00;100352.88;5196799;28;20060;-48
2023/12/14 03:28:05;;;;;;;26.73;9.35;;;9.10;99.90;;;9.07;100.00;100354.53;5222149;28;20128;-48
2023/12/14 03:30:37;;;;;;;22.45;8.40;;;9.10;99.90;;;9.05;100.00;100358.78;5203214;28;20064;-51
2023/12/14 03:33:10;;;;;;;22.20;8.32;;;9.10;99.90;;;9.04;100.00;100365.72;5202896;28;20052;-49
2023/12/14 03:35:43;;;;;;;21.67;8.57;;;9.10;99.90;;;9.04;100.00;100359.63;5204870;28;20052;-47
2023/12/14 03:38:15;;;;;;;26.77;9.10;;;9.10;99.90;;;9.04;100.00;100375.22;5208728;28;20060;-48
2023/12/14 03:40:49;;;;;;;30.77;11.40;;;9.20;99.90;;;9.01;100.00;100372.53;5204456;28;20558;-48
2023/12/14 03:43:22;;;;;;;26.75;10.02;;;9.10;99.90;;;8.98;100.00;100376.78;5204753;28;20132;-50
2023/12/14 03:45:54;;;;;;;27.38;9.50;;;9.10;99.90;;;8.94;100.00;100380.13;5203818;28;20391;-49
2023/12/14 03:48:28;;;;;;;28.67;10.57;;;9.10;99.90;;;8.93;100.00;100399.16;5200944;28;20063;-46
2023/12/14 03:51:04;;;;;;;26.52;10.00;;;9.10;99.90;;;8.89;100.00;100402.47;5214411;28;20095;-49
2023/12/14 03:53:37;;;;;;;28.00;9.93;;;9.00;99.90;;;8.85;100.00;100405.78;5204773;28;20743;-50
2023/12/14 03:56:11;;;;;;;29.17;11.40;;;9.10;99.90;;;8.80;100.00;100409.03;5205447;28;20056;-48
2023/12/14 03:58:44;;;;;;;31.55;10.57;;;9.00;99.90;;;8.76;100.00;100413.25;5203807;28;20053;-48
2023/12/14 04:01:20;;;;;;;30.98;10.10;;;8.90;99.90;;;8.71;100.00;100414.78;5202756;28;20470;-48
2023/12/14 04:03:53;;;;;;;22.13;9.02;;;8.90;99.90;;;8.69;100.00;100430.34;5202064;28;20051;-49
2023/12/14 04:06:26;;;;;;;30.60;9.43;;;8.90;99.90;;;8.66;100.00;100429.34;5198743;28;20055;-47
2023/12/14 04:08:58;;;;;;;27.27;9.52;;;8.80;99.90;;;8.65;100.00;100437.97;5218184;28;20045;-48
2023/12/14 04:11:32;;;;;;;30.30;10.10;;;8.80;99.90;;;8.64;100.00;100446.59;5212040;28;20049;-48
2023/12/14 04:14:04;;;;;;;27.55;9.70;;;8.80;99.90;;;8.63;100.00;100450.03;5203400;28;20064;-49
2023/12/14 04:16:36;;;;;;;25.02;9.80;;;8.80;99.90;;;8.62;100.00;100454.34;5203249;28;20049;-48
2023/12/14 04:19:10;;;;;;;24.40;9.73;;;8.80;99.90;;;8.59;100.00;100464.59;5210379;28;20048;-51
2023/12/14 04:21:42;;;;;;;25.67;9.65;;;8.80;99.90;;;8.53;100.00;100459.16;5192603;28;20077;-49
2023/12/14 04:24:15;;;;;;;23.20;8.95;;;8.70;99.90;;;8.52;100.00;100472.09;5214712;28;20053;-50
2023/12/14 04:26:48;;;;;;;22.83;8.40;;;8.70;99.90;;;8.50;100.00;100471.16;5219554;28;20048;-49
2023/12/14 04:29:21;;;;;;;20.02;7.78;;;8.70;99.90;;;8.49;100.00;100482.41;5200330;28;20056;-48
2023/12/14 04:31:54;;;;;;;18.85;7.32;;;8.60;99.90;;;8.46;100.00;100492.66;5200689;28;20049;-51
2023/12/14 04:34:27;;;;;;;18.77;7.80;;;8.60;99.90;;;8.46;100.00;100500.44;5196813;28;20045;-48
2023/12/14 04:36:59;;;;;;;23.77;9.23;;;8.60;99.90;;;8.42;100.00;100502.06;5204473;28;20458;-50
2023/12/14 04:39:31;;;;;;;19.52;8.02;;;8.60;99.90;;;8.41;100.00;100506.38;5203807;28;20076;-50
2023/12/14 04:42:06;;;;;;;19.95;8.15;;;8.60;99.90;;;8.42;100.00;100513.31;5221062;28;20534;-48
2023/12/14 04:44:39;;;;;;;17.55;6.72;;;8.60;99.90;;;8.39;100.00;100520.97;5204875;28;20053;-50
2023/12/14 04:47:11;;;;;;;16.95;6.82;;;8.50;99.90;;;8.39;100.00;100520.97;5208747;28;20055;-50
2023/12/14 04:49:43;;;;;;;15.88;6.38;;;8.50;99.90;;;8.38;100.00;100521.81;5225095;28;20500;-49
2023/12/14 04:52:16;;;;;;;17.02;6.72;;;8.50;99.90;;;8.38;100.00;100515.72;5207629;28;20451;-49
2023/12/14 04:54:48;;;;;;;17.35;6.95;;;8.50;99.90;;;8.36;100.00;100518.28;5206629;28;20053;-50
2023/12/14 04:57:22;;;;;;;15.15;6.03;;;8.50;99.90;;;8.36;100.00;100538.19;5208072;28;20555;-49
2023/12/14 04:59:54;;;;;;;14.40;5.97;;;8.50;99.90;;;8.34;100.00;100532.88;5208367;28;20049;-49
2023/12/14 05:02:27;;;;;;;13.70;6.22;;;8.50;99.90;;;8.32;100.00;100539.72;5207358;28;20049;-50
2023/12/14 05:05:03;;;;;;;12.93;5.82;;;8.40;99.90;;;8.32;100.00;100547.50;5204246;28;20131;-48
2023/12/14 05:07:35;;;;;;;13.75;5.90;;;8.50;99.90;;;8.31;100.00;100545.75;5204089;28;20053;-50
2023/12/14 05:10:09;;;;;;;14.20;6.10;;;8.50;99.90;;;8.33;100.00;100553.59;5223879;28;20045;-47
2023/12/14 05:12:43;;;;;;;11.48;5.65;;;8.50;99.90;;;8.35;100.00;100562.34;5207779;28;20143;-49
2023/12/14 05:15:19;;;;;;;14.68;6.38;;;8.50;99.90;;;8.35;100.00;100573.66;5203192;28;20053;-47
2023/12/14 05:17:51;;;;;;;15.27;6.97;;;8.50;99.90;;;8.32;100.00;100586.47;5215268;28;20052;-49
2023/12/14 05:20:24;;;;;;;16.40;7.15;;;8.50;99.90;;;8.32;100.00;100593.38;5218671;28;20513;-50
2023/12/14 05:22:56;;;;;;;17.35;6.55;;;8.50;99.90;;;8.31;100.00;100586.41;5205716;28;20064;-48
2023/12/14 05:25:29;;;;;;;15.50;6.60;;;8.50;99.90;;;8.34;100.00;100594.31;5224546;28;20500;-49
2023/12/14 05:28:02;;;;;;;13.10;6.20;;;8.50;99.90;;;8.36;100.00;100585.81;5223536;28;20056;-50
2023/12/14 05:30:35;;;;;;;17.52;6.85;;;8.50;99.90;;;8.38;100.00;100584.16;5207926;28;20051;-50
2023/12/14 05:33:07;;;;;;;15.35;6.97;;;8.50;99.90;;;8.37;100.00;100592.78;5206832;28;20045;-49
2023/12/14 05:35:40;;;;;;;17.30;7.40;;;8.50;99.90;;;8.34;100.00;100592.59;5207907;28;20041;-49
2023/12/14 05:38:12;;;;;;;16.75;6.75;;;8.50;99.90;;;8.33;100.00;100601.22;5207801;28;20053;-49
2023/12/14 05:40:44;;;;;;;22.15;8.23;;;8.50;99.90;;;8.31;100.00;100602.88;5203785;28;20046;-52
2023/12/14 05:43:21;;;;;;;19.02;7.80;;;8.50;99.90;;;8.26;100.00;100603.50;5205601;28;20055;-48
2023/12/14 05:45:54;;;;;;;20.15;8.38;;;8.40;99.90;;;8.21;100.00;100605.03;5205801;28;20122;-48
2023/12/14 05:48:28;;;;;;;17.85;7.68;;;8.40;99.90;;;8.20;100.00;100609.34;5206479;28;20539;-49
2023/12/14 05:51:01;;;;;;;19.77;7.38;;;8.40;99.90;;;8.15;100.00;100613.47;5205511;28;20147;-48
2023/12/14 05:53:36;;;;;;;19.27;7.90;;;8.30;99.90;;;8.12;100.00;100621.13;5207203;28;20401;-49
2023/12/14 05:56:10;;;;;;;20.60;8.07;;;8.30;99.90;;;8.10;100.00;100630.56;5206521;28;20131;-49
2023/12/14 05:58:44;;;;;;;21.65;8.32;;;8.30;99.90;;;8.10;100.00;100627.97;5207362;28;20060;-49
2023/12/14 06:01:18;;;;;;;21.83;8.80;;;8.30;99.90;;;8.08;100.00;100635.66;5206676;28;20515;-48
2023/12/14 06:03:51;;;;;;;26.95;9.98;;;8.30;99.90;;;8.05;100.00;100639.84;5206410;28;20045;-49
2023/12/14 06:06:23;;;;;;;20.63;8.95;;;8.30;99.90;;;8.04;100.00;100646.75;5207078;28;20053;-50
2023/12/14 06:08:56;;;;;;;21.90;8.63;;;8.30;99.90;;;8.04;100.00;100646.75;5206888;28;20701;-48
2023/12/14 06:11:28;;;;;;;28.98;9.80;;;8.20;99.90;;;8.05;100.00;100658.03;5207352;28;20052;-48
2023/12/14 06:14:02;;;;;;;24.23;8.80;;;8.30;99.90;;;8.04;100.00;100664.06;5206524;28;20055;-49
2023/12/14 06:16:34;;;;;;;24.45;9.13;;;8.20;99.90;;;8.04;100.00;100671.84;5224087;28;20049;-47
2023/12/14 06:19:06;;;;;;;22.20;8.00;;;8.20;99.90;;;8.03;100.00;100670.94;5205481;28;20056;-49
2023/12/14 06:21:39;;;;;;;21.23;8.68;;;8.20;99.90;;;8.03;100.00;100672.66;5207255;28;20490;-49
2023/12/14 06:24:11;;;;;;;23.58;9.20;;;8.20;99.90;;;8.03;100.00;100680.44;5206578;28;20037;-50
2023/12/14 06:26:44;;;;;;;21.30;9.07;;;8.20;99.90;;;8.04;100.00;100692.59;5207323;28;20049;-48
2023/12/14 06:29:21;;;;;;;24.60;9.95;;;8.20;99.90;;;8.02;100.00;100694.22;5213314;28;20471;-50
2023/12/14 06:31:53;;;;;;;25.27;9.88;;;8.20;99.90;;;8.03;100.00;100694.31;5206574;28;20053;-50
2023/12/14 06:34:26;;;;;;;24.27;8.80;;;8.20;99.90;;;8.02;100.00;100710.72;5206761;28;20516;-49
2023/12/14 06:36:59;;;;;;;23.77;8.98;;;8.20;99.90;;;8.04;100.00;100721.16;5195249;28;20049;-48
2023/12/14 06:39:32;;;;;;;25.05;9.82;;;8.20;99.90;;;8.02;100.00;100725.38;5207115;28;20037;-48
2023/12/14 06:42:05;;;;;;;22.40;9.13;;;8.20;99.90;;;8.03;100.00;100724.59;5198532;28;20057;-49
2023/12/14 06:44:39;;;;;;;23.65;9.50;;;8.20;99.90;;;8.04;100.00;100734.16;5206636;28;20442;-48
2023/12/14 06:47:14;;;;;;;29.50;10.35;;;8.20;99.90;;;8.04;100.00;100739.34;5197098;28;20117;-47
2023/12/14 06:49:47;;;;;;;22.90;9.65;;;8.20;99.90;;;8.03;100.00;100745.34;5190335;28;20439;-49
2023/12/14 06:52:20;;;;;;;23.45;9.15;;;8.20;99.90;;;8.04;100.00;100753.19;5213502;28;20118;-48
2023/12/14 06:54:52;;;;;;;22.67;8.90;;;8.20;99.90;;;8.03;100.00;100761.81;5222394;28;20045;-48
2023/12/14 06:57:28;;;;;;;29.92;10.65;;;8.20;99.90;;;7.99;100.00;100775.47;5222080;28;20044;-49
2023/12/14 07:00:03;;;;;;;26.58;9.40;;;8.20;99.90;;;7.95;100.00;100780.44;5197180;28;20045;-49
2023/12/14 07:02:35;;;;;;;24.88;9.63;;;8.10;99.90;;;7.90;100.00;100782.84;5222808;28;20101;-48
2023/12/14 07:05:08;;;;;;;24.00;9.52;;;8.10;99.90;;;7.87;100.00;100782.69;5213284;28;20049;-49
2023/12/14 07:07:42;;;;;;;27.30;10.35;;;8.10;99.90;;;7.84;100.00;100796.44;5199315;28;20057;-47
2023/12/14 07:10:14;;;;;;;26.00;9.98;;;8.10;99.90;;;7.82;100.00;100798.09;5204418;28;20106;-49
2023/12/14 07:12:46;;;;;;;21.77;8.98;;;8.00;99.90;;;7.82;100.00;100802.34;5222429;28;20427;-48
2023/12/14 07:15:20;;;;;;;27.65;10.20;;;8.00;99.90;;;7.80;100.00;100810.06;5214309;28;20045;-47
2023/12/14 07:17:53;;;;;;;26.70;9.60;;;8.00;99.90;;;7.80;100.00;100825.66;5205164;28;20048;-48
2023/12/14 07:20:25;;;;;;;22.83;8.90;;;8.00;99.90;;;7.80;100.00;100819.56;5205563;28;20049;-47
2023/12/14 07:22:57;;;;;;;22.60;8.40;;;8.00;99.90;;;7.81;100.00;100826.53;5204309;28;20207;-48
2023/12/14 07:25:33;;;;;;;23.15;8.88;;;8.00;99.90;;;7.84;100.00;100827.56;5206046;28;20048;-49
2023/12/14 07:28:05;;;;;;;26.10;10.38;;;8.00;99.90;;;7.78;100.00;100829.88;5213818;28;20053;-50
2023/12/14 07:30:39;;;;;;;30.67;10.00;;;8.00;99.90;;;7.78;100.00;100836.78;5205569;28;20106;-50
2023/12/14 07:33:11;;;;;;;29.48;10.35;;;7.90;99.90;;;7.78;100.00;100832.47;5197853;28;20049;-48
2023/12/14 07:35:44;;;;;;;33.10;10.98;;;7.90;99.90;;;7.75;100.00;100842.69;5198677;28;20037;-50
2023/12/14 07:38:16;;;;;;;36.35;11.52;;;8.00;99.90;;;7.72;100.00;100852.06;5220124;28;20045;-49
2023/12/14 07:40:50;;;;;;;32.65;10.32;;;8.00;99.90;;;7.69;100.00;100850.19;5198249;28;20044;-49
2023/12/14 07:43:25;;;;;;;33.08;10.88;;;7.90;99.90;;;7.71;100.00;100856.38;5209631;28;20132;-49
2023/12/14 07:45:59;;;;;;;31.85;11.45;;;7.90;99.90;;;7.71;100.00;100860.66;5219255;28;20065;-49
2023/12/14 07:48:31;;;;;;;29.85;9.95;;;7.90;99.90;;;7.70;100.00;100864.97;5191691;28;20064;-47
2023/12/14 07:51:05;;;;;;;30.17;11.45;;;7.90;99.90;;;7.71;100.00;100874.53;5214494;28;20055;-50
2023/12/14 07:53:37;;;;;;;28.42;10.65;;;7.90;99.90;;;7.72;100.00;100881.50;5205366;28;20388;-49
2023/12/14 07:56:10;;;;;;;28.35;10.10;;;7.90;99.90;;;7.71;100.00;100877.13;5202806;28;20436;-50
2023/12/14 07:58:42;;;;;;;29.58;10.18;;;7.90;99.90;;;7.70;100.00;100885.72;5197477;28;20531;-48
2023/12/14 08:01:16;;;;;;;33.30;11.55;;;7.90;99.90;;;7.69;100.00;100883.94;5209629;28;20045;-49
2023/12/14 08:03:49;;;;;;;32.97;11.93;;;7.90;99.90;;;7.70;100.00;100890.94;5194171;28;20139;-49
2023/12/14 08:06:21;;;;;;;33.30;11.50;;;7.90;99.90;;;7.70;100.00;100906.50;5194138;28;20423;-48
2023/12/14 08:08:53;;;;;;;40.33;12.93;;;7.90;99.90;;;7.71;100.00;100913.47;5194043;28;20053;-49
2023/12/14 08:11:26;;;;;;;34.05;12.68;;;7.90;99.90;;;7.71;100.00;100915.16;5195450;28;20529;-49
2023/12/14 08:13:58;;;;;;;33.72;12.93;;;7.90;99.90;;;7.69;100.00;100928.03;5204046;28;20135;-49
2023/12/14 08:16:32;;;;;;;37.75;12.48;;;7.90;99.90;;;7.66;100.00;100935.69;5199129;28;20131;-48
2023/12/14 08:19:04;;;;;;;40.25;12.95;;;7.90;99.90;;;7.63;100.00;100940.75;5203308;28;20269;-49
2023/12/14 08:21:37;;;;;;;38.22;12.23;;;7.80;99.90;;;7.59;100.00;100952.66;5204183;28;20254;-48
2023/12/14 08:24:09;;;;;;;38.30;12.38;;;7.80;99.90;;;7.59;100.00;100949.19;5204047;28;20595;-48
2023/12/14 08:26:41;;;;;;;33.30;10.93;;;7.80;99.90;;;7.56;100.00;100956.78;5191176;28;20508;-47
2023/12/14 08:29:14;;;;;;;36.13;11.13;;;7.80;99.90;;;7.53;100.00;100954.94;5183965;28;20056;-49
2023/12/14 08:31:49;;;;;;;29.98;10.48;;;7.80;99.90;;;7.51;100.00;100963.47;5164092;28;20563;-50
2023/12/14 08:34:21;;;;;;;28.50;9.52;;;7.70;99.90;;;7.44;100.00;100959.69;5200280;28;20512;-48
2023/12/14 08:36:54;;;;;;;29.60;10.13;;;7.70;99.90;;;7.41;100.00;100963.81;5180342;28;20508;-51
2023/12/14 08:39:27;;;;;;;30.38;10.45;;;7.70;99.90;;;7.40;100.00;100967.25;5195908;28;20524;-49
2023/12/14 08:41:59;;;;;;;30.08;9.23;;;7.60;99.90;;;7.38;100.00;100969.75;5182574;28;20073;-49
2023/12/14 08:44:31;;;;;;;27.58;8.85;;;7.60;99.90;;;7.39;100.00;100978.44;5188308;28;20052;-49
2023/12/14 08:47:05;;;;;;;27.38;9.00;;;7.60;99.90;;;7.38;100.00;100987.91;5198244;28;20048;-49
2023/12/14 08:49:41;;;;;;;25.08;7.90;;;7.60;99.90;;;7.38;100.00;100990.50;5180268;28;20055;-49
2023/12/14 08:52:14;;;;;;;22.33;7.47;;;7.60;99.90;;;7.38;100.00;100989.63;5183600;28;20050;-48
2023/12/14 08:54:46;;;;;;;25.48;7.82;;;7.60;99.90;;;7.38;100.00;101000.88;5182666;28;20049;-49
2023/12/14 08:57:19;;;;;;;14.50;5.28;;;7.60;99.90;;;7.90;100.00;101003.47;5183017;28;20049;-48
2023/12/14 08:59:51;;;;;;;26.65;8.02;;;8.00;99.90;;;8.49;100.00;101002.88;5177727;28;20056;-48
2023/12/14 09:02:25;;;;;;;28.35;8.82;;;8.50;99.90;;;8.33;100.00;101016.78;5183302;28;20049;-49
2023/12/14 09:04:57;;;;;;;25.45;7.97;;;8.50;99.90;;;8.11;100.00;101025.28;5182605;28;20504;-47
2023/12/14 09:07:29;;;;;;;27.80;9.27;;;8.40;99.90;;;7.92;100.00;101026.91;5178114;28;20547;-50
2023/12/14 09:10:02;;;;;;;23.63;7.82;;;8.20;99.90;;;7.79;100.00;101028.88;5198151;28;20054;-50
2023/12/14 09:12:35;;;;;;;21.58;7.25;;;8.10;99.90;;;7.72;100.00;101044.97;5199737;28;20048;-49
2023/12/14 09:15:08;;;;;;;23.85;8.13;;;8.00;99.90;;;7.64;100.00;101059.28;5180474;28;20290;-49
2023/12/14 09:17:43;;;;;;;21.83;6.97;;;7.90;99.90;;;7.58;100.00;101051.19;5184355;28;20052;-49
2023/12/14 09:20:15;;;;;;;21.70;6.90;;;7.80;99.90;;;7.51;100.00;101067.25;5183135;28;20041;-47
2023/12/14 09:22:47;;;;;;;24.00;7.20;;;7.80;99.90;;;7.48;100.00;101064.47;5187520;28;20467;-48
2023/12/14 09:25:20;;;;;;;24.30;6.97;;;7.70;99.90;;;7.42;100.00;101077.13;5182631;28;20539;-48
2023/12/14 09:27:52;;;;;;;23.00;6.57;;;7.60;99.90;;;7.37;100.00;101083.78;5183620;28;20131;-49
2023/12/14 09:30:25;;;;;;;19.52;6.18;;;7.60;99.90;;;7.35;100.00;101079.41;5182343;28;20049;-49
2023/12/14 09:32:58;;;;;;;19.02;6.60;;;7.60;99.90;;;7.37;100.00;101091.56;5203925;28;20050;-49
2023/12/14 09:35:31;;;;;;;19.10;6.75;;;7.50;99.90;;;7.30;100.00;101098.13;5195828;28;20427;-49
2023/12/14 09:38:17;;;;;;;20.13;6.35;;;7.50;99.90;;;7.29;100.00;101105.00;5186481;28;20141;-49
2023/12/14 09:40:51;;;;;;;16.98;5.90;;;7.50;99.90;;;7.31;100.00;101100.81;5204417;28;20053;-47
2023/12/14 09:43:24;;;;;;;18.30;6.45;;;7.50;99.90;;;7.30;100.00;101103.31;5186837;28;20069;-49
2023/12/14 09:45:57;;;;;;;18.45;6.70;;;7.50;99.90;;;7.25;100.00;101110.88;5187715;28;20050;-48
2023/12/14 09:48:33;;;;;;;18.85;7.13;;;7.40;99.90;;;7.25;100.00;101115.16;5204284;28;20041;-48
2023/12/14 09:51:06;;;;;;;25.95;8.30;;;7.40;99.90;;;7.24;100.00;101114.28;5187460;28;20045;-49
2023/12/14 09:53:39;;;;;;;20.75;7.15;;;7.40;99.90;;;7.24;100.00;101122.06;5186162;28;20057;-50
2023/12/14 09:56:11;;;;;;;20.27;7.10;;;7.40;99.90;;;7.23;100.00;101119.34;5186533;28;20049;-48
2023/12/14 09:58:43;;;;;;;19.23;6.57;;;7.40;99.90;;;7.23;100.00;101127.13;5186272;28;20045;-49
2023/12/14 10:01:24;;;;;;;18.70;5.93;;;7.40;99.90;;;7.24;100.00;101127.25;5187176;28;20049;-50
2023/12/14 10:04:12;;;;;;;21.90;8.00;;;7.40;99.90;;;7.25;100.00;101128.13;5187531;28;20141;-48
2023/12/14 10:06:47;;;;;;;17.15;6.57;;;7.40;99.90;;;7.23;100.00;101129.72;5189425;28;20038;-49
2023/12/14 10:09:24;;;;;;;19.55;6.65;;;7.40;99.90;;;7.22;100.00;101134.03;5200305;28;20054;-47
2023/12/14 10:12:06;;;;;;;19.70;7.07;;;7.40;99.90;;;7.25;100.00;101141.09;5183018;28;20046;-51
2023/12/14 10:14:39;;;;;;;19.15;6.80;;;7.40;99.90;;;7.22;100.00;101144.41;5204763;28;20060;-49
2023/12/14 10:17:20;;;;;;;20.85;7.25;;;7.40;99.90;;;7.22;100.00;101144.41;5180503;28;20049;-48
2023/12/14 10:19:54;;;;;;;19.65;7.22;;;7.40;99.90;;;7.22;100.00;101147.00;5182507;28;20049;-48
2023/12/14 10:22:32;;;;;;;24.10;8.82;;;7.40;99.90;;;7.22;100.00;101154.78;5202608;28;20041;-50
2023/12/14 10:25:09;;;;;;;18.55;6.82;;;7.40;99.90;;;7.22;100.00;101159.94;5183175;28;20045;-49
2023/12/14 10:27:42;;;;;;;20.40;7.20;;;7.40;99.90;;;7.20;100.00;101163.28;5185314;28;20144;-47
2023/12/14 10:30:16;;;;;;;21.00;7.60;;;7.40;99.90;;;7.16;100.00;101169.09;5182445;28;20135;-48
2023/12/14 10:32:49;;;;;;;19.30;6.80;;;7.30;99.90;;;7.13;100.00;101169.84;5186493;28;20068;-48
2023/12/14 10:35:23;;;;;;;19.48;7.05;;;7.30;99.90;;;7.12;100.00;101178.44;5192794;28;20573;-48
2023/12/14 10:38:00;;;;;;;19.17;7.15;;;7.30;99.90;;;7.08;100.00;101172.16;5186764;28;20053;-48